Time;durP1;ratioP1;P1;durP2;ratioP2;P2;SDS_P1;SDS_P2;PMS_P1;PMS_P2;Temp;Humidity;BMP_temperature;BMP_pressure;BME280_temperature;BME280_humidity;BME280_pressure;Samples;Min_cycle;Max_cycle;Signal;HPM_P1;HPM_P2
2022/12/11 00:01:16;;;;;;;;;34.25;29.75;;;;;1.75;72.23;100660.84;5097135;27;45446;-68
2022/12/11 00:03:42;;;;;;;;;40.50;29.25;;;;;1.76;72.11;100667.81;5096410;27;45463;-67
2022/12/11 00:06:11;;;;;;;;;18.50;17.50;;;;;1.72;72.31;100667.03;5106009;27;45510;-66
2022/12/11 00:08:37;;;;;;;;;25.00;21.50;;;;;1.66;72.67;100661.88;5107680;27;45291;-66
2022/12/11 00:11:03;;;;;;;;;40.75;30.50;;;;;1.64;72.98;100666.28;5097983;27;45338;-67
2022/12/11 00:13:28;;;;;;;;;30.50;26.50;;;;;1.64;72.76;100658.41;5078558;27;46246;-65
2022/12/11 00:15:56;;;;;;;;;25.50;24.75;;;;;1.56;73.10;100649.81;5097653;27;45267;-67
2022/12/11 00:18:22;;;;;;;;;23.50;23.50;;;;;1.59;72.70;100644.53;5095889;27;45395;-67
2022/12/11 00:20:47;;;;;;;;;31.25;20.50;;;;;1.52;72.95;100637.66;5096742;27;45460;-68
2022/12/11 00:23:13;;;;;;;;;33.50;26.75;;;;;1.55;72.91;100627.13;5081651;27;45379;-67
2022/12/11 00:25:43;;;;;;;;;26.00;18.50;;;;;1.53;73.33;100638.53;5097826;27;45326;-67
2022/12/11 00:28:09;;;;;;;;;30.25;27.75;;;;;1.55;73.29;100627.13;5101483;27;45267;-68
2022/12/11 00:30:39;;;;;;;;;35.25;30.00;;;;;1.58;73.36;100627.09;5078180;27;45218;-67
2022/12/11 00:33:05;;;;;;;;;27.75;24.25;;;;;1.61;73.47;100637.50;5089960;27;45423;-68
2022/12/11 00:35:30;;;;;;;;;32.75;30.50;;;;;1.48;73.02;100604.56;5083740;27;45811;-66
2022/12/11 00:37:56;;;;;;;;;39.00;28.25;;;;;1.60;73.30;100611.34;5093949;27;45726;-67
2022/12/11 00:40:21;;;;;;;;;32.00;26.50;;;;;1.68;73.42;100628.63;5079089;27;45399;-67
2022/12/11 00:42:46;;;;;;;;;41.75;29.25;;;;;1.67;72.83;100621.66;5096280;27;46127;-67
2022/12/11 00:45:12;;;;;;;;;31.00;23.75;;;;;1.69;72.67;100625.13;5091680;27;45438;-67
2022/12/11 00:47:37;;;;;;;;;30.25;24.00;;;;;1.70;72.69;100632.09;5076866;27;45355;-65
2022/12/11 00:50:03;;;;;;;;;34.00;33.50;;;;;1.51;72.99;100594.00;5093676;27;45311;-68
2022/12/11 00:52:28;;;;;;;;;34.50;24.75;;;;;1.73;72.56;100615.44;5092245;27;46552;-67
2022/12/11 00:54:54;;;;;;;;;39.25;30.25;;;;;1.75;72.25;100619.75;5094948;27;45263;-66
2022/12/11 00:57:19;;;;;;;;;32.00;26.50;;;;;1.64;72.97;100597.25;5079098;27;45540;-67
2022/12/11 00:59:44;;;;;;;;;25.75;21.25;;;;;1.67;72.98;100611.16;5097290;27;45456;-70
2022/12/11 01:02:10;;;;;;;;;32.00;23.00;;;;;1.70;72.83;100605.88;5095651;27;45382;-67
2022/12/11 01:04:36;;;;;;;;;28.25;25.00;;;;;1.79;72.33;100615.31;5097422;27;45351;-67
2022/12/11 01:07:01;;;;;;;;;33.75;25.25;;;;;1.78;72.18;100617.06;5089283;27;45443;-67
2022/12/11 01:12:10;;;;;;;;;24.75;13.50;;;;;1.73;71.49;100612.81;5095879;27;45925;-67
2022/12/11 01:14:36;;;;;;;;;30.25;21.00;;;;;1.60;71.55;100591.22;5097912;27;45320;-67
2022/12/11 01:17:01;;;;;;;;;19.00;19.00;;;;;1.53;71.85;100586.97;5096212;27;45391;-67
2022/12/11 01:19:27;;;;;;;;;24.25;19.25;;;;;1.62;72.47;100592.06;5097840;27;45623;-66
2022/12/11 01:21:53;;;;;;;;;25.50;21.25;;;;;1.70;72.26;100595.41;5098310;27;46252;-66
2022/12/11 01:24:18;;;;;;;;;26.00;19.25;;;;;1.69;71.69;100583.19;5093677;27;45562;-66
2022/12/11 01:26:44;;;;;;;;;28.75;21.50;;;;;1.70;72.17;100582.28;5097560;27;45373;-65
2022/12/11 01:29:09;;;;;;;;;30.50;21.50;;;;;1.72;71.80;100596.22;5092278;27;45716;-68
2022/12/11 01:31:36;;;;;;;;;26.75;24.25;;;;;1.74;72.35;100591.81;5089930;27;45338;-68
2022/12/11 01:34:02;;;;;;;;;24.25;21.00;;;;;1.74;72.08;100604.06;5078037;27;45238;-67
2022/12/11 01:36:27;;;;;;;;;36.75;29.50;;;;;1.73;72.19;100610.19;5097310;27;45300;-67
2022/12/11 01:38:53;;;;;;;;;25.25;24.75;;;;;1.70;72.47;100603.25;5088370;27;47067;-67
2022/12/11 01:41:19;;;;;;;;;25.00;24.00;;;;;1.59;72.13;100586.88;5085973;27;45243;-67
2022/12/11 01:44:23;;;;;;;;;26.75;24.50;;;;;1.71;71.94;100612.84;5097504;27;45208;-67
2022/12/11 01:46:48;;;;;;;;;25.25;21.00;;;;;1.61;71.83;100603.44;5077661;27;45450;-70
2022/12/11 01:49:17;;;;;;;;;31.75;21.00;;;;;1.66;71.77;100609.44;5111289;27;45882;-65
2022/12/11 01:51:56;;;;;;;;;34.25;21.25;;;;;1.64;71.67;100608.59;5101549;27;46954;-67
2022/12/11 01:54:23;;;;;;;;;18.25;18.00;;;;;1.50;71.86;100587.03;5087779;27;45836;-64
2022/12/11 01:56:52;;;;;;;;;24.25;21.00;;;;;1.43;72.18;100590.66;5076395;28;45249;-67
2022/12/11 01:59:22;;;;;;;;;16.25;14.50;;;;;1.54;72.55;100628.03;5093632;27;45570;-66
2022/12/11 02:02:20;;;;;;;;;24.50;19.50;;;;;1.48;72.53;100622.91;5092174;27;46629;-66
2022/12/11 02:04:47;;;;;;;;;8.00;6.75;;;;;1.43;72.21;100623.00;5063849;27;45863;-66
2022/12/11 02:07:13;;;;;;;;;21.00;18.00;;;;;1.40;73.11;100616.94;5080202;27;45651;-67
2022/12/11 02:09:41;;;;;;;;;6.25;5.50;;;;;1.38;73.06;100614.34;5114712;27;45316;-66
2022/12/11 02:12:17;;;;;;;;;26.75;22.50;;;;;1.47;73.04;100605.47;5101011;27;45379;-67
2022/12/11 02:15:23;;;;;;;;;24.75;16.50;;;;;1.48;72.30;100604.56;5082196;27;45346;-68
2022/12/11 02:18:26;;;;;;;;;22.00;18.75;;;;;1.51;72.25;100607.13;5090671;27;45331;-66
2022/12/11 02:21:19;;;;;;;;;25.75;15.25;;;;;1.53;71.94;100605.31;5100539;27;45311;-65
2022/12/11 02:23:56;;;;;;;;;18.00;15.75;;;;;1.49;72.42;100598.44;5102552;27;46189;-66
2022/12/11 02:26:54;;;;;;;;;19.50;17.75;;;;;1.41;72.30;100597.69;5101608;27;45410;-66
2022/12/11 02:29:36;;;;;;;;;17.50;12.50;;;;;1.24;71.96;100590.16;5085898;27;45370;-65
2022/12/11 02:32:25;;;;;;;;;16.50;16.50;;;;;1.21;73.19;100594.59;5091360;27;45466;-67
2022/12/11 02:34:59;;;;;;;;;24.75;16.00;;;;;1.28;72.80;100597.06;5098189;27;47154;-65
2022/12/11 02:37:28;;;;;;;;;16.50;16.50;;;;;1.32;73.06;100593.50;5098077;27;45437;-67
2022/12/11 02:39:55;;;;;;;;;23.25;19.00;;;;;1.34;72.91;100590.84;5099663;27;45500;-65
2022/12/11 02:42:25;;;;;;;;;28.25;18.00;;;;;1.34;72.93;100583.84;5099302;27;45557;-65
2022/12/11 02:44:52;;;;;;;;;21.00;19.00;;;;;1.37;73.21;100580.31;5079881;27;47355;-69
2022/12/11 02:47:20;;;;;;;;;22.75;18.00;;;;;1.39;72.99;100573.28;5108533;27;46731;-65
2022/12/11 02:49:48;;;;;;;;;24.50;17.25;;;;;1.37;72.71;100578.56;5105017;27;45416;-68
2022/12/11 02:52:21;;;;;;;;;18.00;15.25;;;;;1.37;72.54;100572.44;5098019;27;45606;-66
2022/12/11 02:54:51;;;;;;;;;25.25;14.50;;;;;1.32;72.23;100571.69;5097112;27;46233;-66
2022/12/11 02:57:48;;;;;;;;;15.75;13.50;;;;;1.20;73.12;100574.53;5069539;27;45692;-67
2022/12/11 03:00:15;;;;;;;;;15.25;15.00;;;;;1.22;71.89;100580.59;5090583;27;45589;-65
2022/12/11 03:02:41;;;;;;;;;10.75;8.50;;;;;1.06;72.02;100565.16;5098598;27;46104;-64
2022/12/11 03:05:09;;;;;;;;;15.25;13.00;;;;;1.11;72.92;100592.13;5080712;27;45431;-66
2022/12/11 03:07:38;;;;;;;;;21.25;14.50;;;;;1.08;72.80;100583.47;5098920;27;45299;-66
2022/12/11 03:10:06;;;;;;;;;12.25;12.25;;;;;1.07;72.87;100577.34;5098884;27;45981;-66
2022/12/11 03:12:36;;;;;;;;;18.00;16.25;;;;;1.08;72.33;100579.09;5097340;27;45389;-67
2022/12/11 03:15:06;;;;;;;;;14.75;13.00;;;;;1.06;72.70;100575.63;5097610;27;46092;-67
2022/12/11 03:17:43;;;;;;;;;17.00;12.75;;;;;0.94;72.46;100562.75;5097554;27;45295;-66
2022/12/11 03:20:12;;;;;;;;;15.50;14.00;;;;;1.02;72.71;100567.84;5078463;27;45481;-66
2022/12/11 03:22:40;;;;;;;;;16.25;14.00;;;;;0.97;72.88;100543.50;5060898;27;45607;-67
2022/12/11 03:25:22;;;;;;;;;23.00;17.25;;;;;1.16;73.01;100571.94;5098427;27;46612;-67
2022/12/11 03:27:56;;;;;;;;;18.50;13.50;;;;;1.17;72.62;100565.84;5095568;27;45450;-68
2022/12/11 03:30:24;;;;;;;;;19.00;13.00;;;;;1.13;73.03;100564.13;5081175;27;45249;-68
2022/12/11 03:32:57;;;;;;;;;19.00;15.50;;;;;1.04;72.71;100556.47;5088828;27;45471;-67
2022/12/11 03:35:32;;;;;;;;;21.25;15.25;;;;;1.09;73.07;100559.00;5096971;27;45636;-69
2022/12/11 03:38:03;;;;;;;;;17.00;17.00;;;;;1.15;73.66;100562.34;5080919;27;45655;-69
2022/12/11 03:40:32;;;;;;;;;17.25;15.00;;;;;1.09;73.28;100544.13;5098275;27;45422;-67
2022/12/11 03:43:04;;;;;;;;;25.00;18.00;;;;;1.22;73.20;100557.03;5082904;27;45275;-67
2022/12/11 03:45:36;;;;;;;;;7.25;6.75;;;;;1.24;72.89;100568.31;5084097;27;48590;-66
2022/12/11 03:48:06;;;;;;;;;18.50;12.25;;;;;1.28;73.28;100570.00;5112594;27;45476;-67
2022/12/11 03:50:33;;;;;;;;;18.75;15.00;;;;;1.19;73.20;100544.84;5098318;27;45228;-68
2022/12/11 03:53:04;;;;;;;;;19.25;16.50;;;;;1.35;73.06;100561.13;5097268;27;45579;-67
2022/12/11 03:55:32;;;;;;;;;15.00;12.25;;;;;1.20;72.44;100550.94;5097180;27;45492;-68
2022/12/11 03:57:57;;;;;;;;;16.25;14.00;;;;;1.26;72.69;100566.53;5079389;27;45393;-64
2022/12/11 04:00:23;;;;;;;;;15.50;12.75;;;;;1.18;72.83;100548.38;5097123;27;45776;-68
2022/12/11 04:03:11;;;;;;;;;14.00;11.00;;;;;1.20;72.99;100561.44;5080442;27;45484;-66
2022/12/11 04:05:34;;;;;;;;;14.00;12.25;;;;;1.13;72.95;100558.91;5092504;27;46098;-67
2022/12/11 04:08:00;;;;;;;;;15.50;7.00;;;;;1.13;72.28;100561.53;5092458;27;45304;-68
2022/12/11 04:10:26;;;;;;;;;4.50;4.50;;;;;1.03;72.54;100559.09;5078222;27;45428;-69
2022/12/11 04:12:52;;;;;;;;;15.50;15.25;;;;;0.76;73.06;100529.88;5096043;27;45504;-70
2022/12/11 04:15:17;;;;;;;;;16.00;16.00;;;;;0.89;72.67;100551.47;5060980;27;47909;-67
2022/12/11 04:26:11;;;;;;;;;13.75;12.50;;;;;0.90;72.61;100553.19;5097334;27;45385;-67
2022/12/11 04:28:38;;;;;;;;;11.75;11.75;;;;;0.87;72.75;100548.88;5096861;27;45201;-66
2022/12/11 04:31:04;;;;;;;;;18.75;12.00;;;;;0.86;72.80;100551.53;5093783;27;45640;-66
2022/12/11 04:33:29;;;;;;;;;14.00;10.50;;;;;0.87;73.22;100550.63;5077265;27;45485;-67
2022/12/11 04:35:59;;;;;;;;;7.75;7.00;;;;;0.88;73.47;100542.75;5096356;27;46184;-68
2022/12/11 04:38:24;;;;;;;;;12.50;10.25;;;;;0.72;72.95;100527.34;5079251;27;45343;-65
2022/12/11 04:41:01;;;;;;;;;9.25;7.00;;;;;0.80;72.28;100538.56;5092713;27;45434;-67
2022/12/11 04:43:27;;;;;;;;;11.25;9.50;;;;;0.80;72.20;100542.03;5094059;27;46866;-66
2022/12/11 04:46:17;;;;;;;;;9.00;9.00;;;;;0.69;72.46;100530.88;5078426;27;45514;-65
2022/12/11 04:48:43;;;;;;;;;10.25;9.50;;;;;0.73;72.76;100535.16;5076078;27;45257;-66
2022/12/11 04:51:08;;;;;;;;;13.00;11.50;;;;;0.62;73.44;100528.38;5093447;27;45572;-66
2022/12/11 04:53:35;;;;;;;;;15.75;10.75;;;;;0.71;73.38;100530.84;5085150;27;45840;-65
2022/12/11 04:56:03;;;;;;;;;19.25;11.50;;;;;0.71;73.42;100530.84;5096449;27;45444;-64
2022/12/11 04:58:29;;;;;;;;;13.00;11.75;;;;;0.62;72.61;100520.53;5096699;27;45326;-68
2022/12/11 05:00:54;;;;;;;;;10.00;8.50;;;;;0.62;72.87;100521.38;5061953;27;45471;-67
2022/12/11 05:03:20;;;;;;;;;10.00;7.50;;;;;0.65;73.12;100526.59;5086740;27;45624;-67
2022/12/11 05:05:52;;;;;;;;;10.50;10.50;;;;;0.65;73.19;100529.22;5093805;27;45464;-66
2022/12/11 05:08:19;;;;;;;;;13.00;9.50;;;;;0.65;73.48;100526.59;5071367;27;45465;-65
2022/12/11 05:10:58;;;;;;;;;17.75;11.00;;;;;0.72;73.17;100527.34;5090200;27;45346;-66
2022/12/11 05:13:24;;;;;;;;;15.50;14.00;;;;;0.80;72.56;100520.25;5097586;27;45215;-65
2022/12/11 05:15:50;;;;;;;;;12.00;9.75;;;;;0.82;72.77;100523.69;5095801;27;45275;-63
2022/12/11 05:18:15;;;;;;;;;9.75;8.00;;;;;0.80;72.71;100515.88;5096615;27;45165;-68
2022/12/11 05:20:41;;;;;;;;;9.75;9.75;;;;;0.80;73.23;100520.25;5095527;27;45931;-63
2022/12/11 05:23:06;;;;;;;;;11.75;8.75;;;;;0.79;73.00;100522.00;5097385;27;45636;-66
2022/12/11 05:25:32;;;;;;;;;13.50;9.75;;;;;0.71;73.05;100510.78;5095494;27;45563;-68
2022/12/11 05:27:57;;;;;;;;;12.75;12.75;;;;;0.62;73.35;100504.81;5078476;27;45350;-66
2022/12/11 05:30:22;;;;;;;;;14.00;8.00;;;;;0.72;72.74;100527.34;5096604;27;45429;-66
2022/12/11 05:32:48;;;;;;;;;11.50;10.00;;;;;0.66;72.86;100511.75;5096426;27;45335;-65
2022/12/11 05:35:14;;;;;;;;;14.00;9.75;;;;;0.69;72.89;100512.56;5077339;27;45479;-66
2022/12/11 05:37:39;;;;;;;;;16.00;10.50;;;;;0.67;73.30;100513.47;5095554;27;45777;-66
2022/12/11 05:40:05;;;;;;;;;14.00;10.50;;;;;0.70;72.91;100521.28;5096440;27;45477;-67
2022/12/11 05:42:32;;;;;;;;;13.00;9.75;;;;;0.63;72.70;100498.69;5082306;27;45401;-66
2022/12/11 05:44:57;;;;;;;;;13.25;12.25;;;;;0.59;73.23;100519.69;5106947;27;46359;-65
2022/12/11 05:47:23;;;;;;;;;16.75;12.25;;;;;0.57;73.21;100497.06;5118845;27;45723;-66
2022/12/11 05:49:48;;;;;;;;;19.00;14.25;;;;;0.58;73.63;100497.03;5093901;27;45287;-64
2022/12/11 05:52:15;;;;;;;;;13.00;12.00;;;;;0.76;73.51;100514.16;5077026;27;45252;-65
2022/12/11 05:54:41;;;;;;;;;17.50;11.00;;;;;0.80;73.34;100512.38;5098894;27;45255;-67
2022/12/11 05:57:06;;;;;;;;;10.00;7.00;;;;;0.79;73.38;100502.81;5096139;27;45239;-67
2022/12/11 05:59:31;;;;;;;;;19.25;16.00;;;;;0.77;73.53;100494.09;5065013;27;45448;-66
2022/12/11 06:01:57;;;;;;;;;11.00;11.00;;;;;0.74;73.28;100502.88;5098943;27;45599;-69
2022/12/11 06:04:22;;;;;;;;;16.25;14.50;;;;;0.78;73.33;100501.94;5080399;27;46590;-67
2022/12/11 06:06:48;;;;;;;;;21.75;14.00;;;;;0.82;73.12;100498.38;5099052;27;45478;-66
2022/12/11 06:09:15;;;;;;;;;14.50;12.75;;;;;0.75;73.02;100501.97;5099146;27;45444;-67
2022/12/11 06:11:40;;;;;;;;;7.75;6.50;;;;;0.74;73.02;100504.63;5099977;27;45375;-64
2022/12/11 06:14:06;;;;;;;;;15.00;12.00;;;;;0.66;73.11;100498.66;5099776;27;46118;-63
2022/12/11 06:16:31;;;;;;;;;14.00;11.00;;;;;0.70;73.10;100508.19;5101289;27;45383;-66
2022/12/11 06:18:57;;;;;;;;;12.75;11.00;;;;;0.73;73.21;100505.50;5083969;27;45388;-64
2022/12/11 06:21:25;;;;;;;;;14.00;12.50;;;;;0.69;73.68;100507.31;5098029;27;45236;-66
2022/12/11 06:23:53;;;;;;;;;15.75;15.00;;;;;0.66;73.59;100490.81;5091095;27;47911;-65
2022/12/11 06:26:20;;;;;;;;;25.75;13.50;;;;;0.60;73.11;100486.53;5099040;27;45529;-64
2022/12/11 06:28:46;;;;;;;;;12.50;12.50;;;;;0.67;73.19;100492.53;5098157;27;45544;-66
2022/12/11 06:31:12;;;;;;;;;23.00;18.50;;;;;0.68;73.41;100495.13;5095870;27;45250;-65
2022/12/11 06:33:38;;;;;;;;;22.25;13.50;;;;;0.63;73.78;100490.84;5065794;27;46989;-66
2022/12/11 06:36:08;;;;;;;;;18.75;17.00;;;;;0.65;73.17;100494.28;5094104;27;45496;-66
2022/12/11 06:38:34;;;;;;;;;18.50;13.75;;;;;0.63;73.65;100499.56;5095574;27;45448;-64
2022/12/11 06:41:03;;;;;;;;;19.75;16.00;;;;;0.58;73.50;100497.03;5098188;27;46028;-63
2022/12/11 06:43:29;;;;;;;;;12.50;8.00;;;;;0.56;72.93;100490.97;5109132;27;45654;-65
2022/12/11 06:45:54;;;;;;;;;22.00;14.75;;;;;0.48;72.49;100487.59;5100158;27;45258;-67
2022/12/11 06:48:20;;;;;;;;;17.75;16.00;;;;;0.33;73.13;100466.94;5098661;27;45505;-66
2022/12/11 06:50:45;;;;;;;;;16.00;12.75;;;;;0.40;73.58;100479.03;5098097;27;45402;-66
2022/12/11 06:53:14;;;;;;;;;18.00;15.50;;;;;0.47;73.90;100480.66;5098267;27;45349;-64
2022/12/11 06:55:40;;;;;;;;;24.25;19.25;;;;;0.49;73.22;100478.88;5079682;27;45361;-64
2022/12/11 06:58:07;;;;;;;;;20.25;20.25;;;;;0.58;73.16;100491.81;5098615;27;45768;-64
2022/12/11 07:00:35;;;;;;;;;32.00;22.00;;;;;0.50;73.54;100477.97;5099364;27;45337;-63
2022/12/11 07:03:01;;;;;;;;;22.00;17.50;;;;;0.54;73.21;100477.06;5096260;27;45500;-64
2022/12/11 07:05:27;;;;;;;;;29.50;18.25;;;;;0.47;73.09;100480.66;5079027;27;45255;-65
2022/12/11 07:07:56;;;;;;;;;28.50;23.00;;;;;0.44;73.06;100478.09;5060285;28;45189;-62
2022/12/11 07:10:23;;;;;;;;;29.75;23.00;;;;;0.50;73.53;100491.06;5096952;27;45569;-65
2022/12/11 07:12:51;;;;;;;;;34.00;27.00;;;;;0.38;73.24;100464.22;5078625;28;45259;-65
2022/12/11 07:15:16;;;;;;;;;24.75;15.50;;;;;0.42;73.09;100471.16;5096209;27;45500;-66
2022/12/11 07:17:42;;;;;;;;;31.25;25.50;;;;;0.47;73.45;100478.03;5098704;27;45520;-65
2022/12/11 07:20:08;;;;;;;;;22.25;17.50;;;;;0.51;73.06;100484.94;5085786;27;45345;-64
2022/12/11 07:22:33;;;;;;;;;23.00;20.00;;;;;0.46;73.30;100470.22;5096147;27;46622;-64
2022/12/11 07:24:59;;;;;;;;;35.00;29.00;;;;;0.60;73.33;100497.00;5091820;27;45504;-64
2022/12/11 07:27:24;;;;;;;;;20.00;17.50;;;;;0.57;72.41;100503.16;5099492;27;45717;-64
2022/12/11 07:29:50;;;;;;;;;35.50;27.50;;;;;0.54;72.85;100497.97;5100856;27;45643;-66
2022/12/11 07:32:15;;;;;;;;;24.50;15.50;;;;;0.50;72.30;100493.66;5096987;27;46401;-66
2022/12/11 07:34:41;;;;;;;;;29.75;26.25;;;;;0.44;72.27;100477.22;5094194;27;45356;-64
2022/12/11 07:37:06;;;;;;;;;33.00;25.25;;;;;0.58;72.29;100501.41;5110219;27;45444;-64
2022/12/11 07:39:32;;;;;;;;;29.25;25.25;;;;;0.49;72.41;100489.31;5098964;27;45432;-64
2022/12/11 07:41:57;;;;;;;;;32.00;26.50;;;;;0.65;72.85;100502.16;5097012;27;45556;-62
2022/12/11 07:44:23;;;;;;;;;33.00;29.50;;;;;0.69;72.68;100512.56;5092292;27;45528;-66
2022/12/11 07:46:49;;;;;;;;;29.25;26.75;;;;;0.66;72.50;100498.66;5095883;27;45842;-64
2022/12/11 07:49:14;;;;;;;;;30.25;22.00;;;;;0.61;72.41;100497.88;5099090;27;45211;-62
2022/12/11 07:51:41;;;;;;;;;36.50;31.50;;;;;0.65;72.08;100499.53;5097089;27;45349;-65
2022/12/11 07:54:13;;;;;;;;;31.75;24.75;;;;;0.70;72.55;100505.56;5097645;27;45336;-65
2022/12/11 07:56:39;;;;;;;;;32.25;29.50;;;;;0.61;71.45;100483.03;5095178;27;45777;-65
2022/12/11 07:59:07;;;;;;;;;36.00;26.00;;;;;0.72;71.91;100493.31;5098207;27;45773;-64
2022/12/11 08:01:35;;;;;;;;;36.50;29.00;;;;;0.72;71.83;100501.16;5102510;27;46911;-65
2022/12/11 08:04:02;;;;;;;;;43.00;28.50;;;;;0.76;71.94;100502.84;5104720;27;45392;-64
2022/12/11 08:06:33;;;;;;;;;26.00;24.25;;;;;0.75;71.62;100496.72;5077957;27;45325;-63
2022/12/11 08:09:01;;;;;;;;;34.50;26.75;;;;;0.79;71.54;100498.44;5119249;27;45391;-63
2022/12/11 08:11:27;;;;;;;;;43.50;32.00;;;;;0.81;70.01;100501.03;5117552;27;45353;-63
2022/12/11 08:13:53;;;;;;;;;37.00;30.75;;;;;0.79;71.26;100500.19;5092875;27;45289;-68
2022/12/11 08:16:19;;;;;;;;;42.75;33.25;;;;;0.73;70.64;100487.19;5098360;27;45986;-63
2022/12/11 08:18:46;;;;;;;;;40.50;26.50;;;;;0.81;71.38;100506.25;5089983;27;45536;-65
2022/12/11 08:21:13;;;;;;;;;42.25;30.75;;;;;0.86;71.01;100507.03;5088979;27;46116;-61
2022/12/11 08:23:39;;;;;;;;;32.50;28.50;;;;;0.85;70.96;100511.41;5061765;27;45814;-69
2022/12/11 08:26:06;;;;;;;;;38.50;33.25;;;;;0.86;70.46;100500.03;5091980;27;45814;-64
2022/12/11 08:28:32;;;;;;;;;33.75;30.00;;;;;0.94;70.61;100507.75;5082175;27;45482;-69
2022/12/11 08:30:58;;;;;;;;;34.25;27.75;;;;;0.89;71.00;100493.88;5106531;27;46056;-67
2022/12/11 08:33:24;;;;;;;;;40.25;32.75;;;;;1.01;70.71;100504.13;5085762;27;45508;-69
2022/12/11 08:35:49;;;;;;;;;34.75;29.25;;;;;1.01;70.00;100511.97;5077616;27;45230;-64
2022/12/11 08:38:15;;;;;;;;;39.75;33.00;;;;;1.01;70.01;100511.97;5071196;27;45283;-68
2022/12/11 08:40:40;;;;;;;;;41.50;30.00;;;;;0.94;70.03;100492.06;5094793;27;46028;-61
2022/12/11 08:43:06;;;;;;;;;33.50;31.25;;;;;1.07;70.39;100506.66;5088519;27;45757;-61
2022/12/11 08:45:31;;;;;;;;;33.00;26.50;;;;;1.11;69.78;100500.44;5077509;27;45785;-69
2022/12/11 08:47:58;;;;;;;;;39.00;34.75;;;;;1.09;69.44;100507.47;5076672;27;45570;-60
2022/12/11 08:50:24;;;;;;;;;38.75;31.00;;;;;0.97;68.64;100501.59;5076515;27;46394;-60
2022/12/11 08:52:49;;;;;;;;;33.50;29.75;;;;;0.86;69.01;100489.56;5086155;27;45488;-61
2022/12/11 08:55:15;;;;;;;;;37.50;29.00;;;;;0.90;69.08;100500.84;5077178;27;45465;-63
2022/12/11 08:57:40;;;;;;;;;28.00;24.75;;;;;0.89;69.03;100509.56;5076436;27;45619;-61
2022/12/11 09:00:08;;;;;;;;;30.50;21.50;;;;;0.83;68.52;100501.84;5077672;27;45445;-65
2022/12/11 09:02:33;;;;;;;;;27.25;18.25;;;;;0.80;68.43;100496.69;5080180;27;45246;-64
2022/12/11 09:04:59;;;;;;;;;43.25;30.50;;;;;0.87;69.12;100501.75;5077542;27;45181;-67
2022/12/11 09:07:25;;;;;;;;;32.00;27.00;;;;;0.84;68.59;100495.72;5102390;27;45723;-66
2022/12/11 09:09:53;;;;;;;;;41.00;30.75;;;;;0.92;69.39;100499.06;5109950;27;45684;-67
2022/12/11 09:12:19;;;;;;;;;21.50;17.00;;;;;0.87;68.83;100493.03;5076418;27;45713;-69
2022/12/11 09:14:44;;;;;;;;;41.00;27.50;;;;;0.88;69.63;100494.75;5094335;27;45529;-68
2022/12/11 09:17:10;;;;;;;;;41.75;30.50;;;;;0.88;69.45;100484.28;5092834;27;45687;-67
2022/12/11 09:19:35;;;;;;;;;33.25;30.50;;;;;1.08;68.55;100502.28;5076669;27;46261;-64
2022/12/11 09:22:01;;;;;;;;;30.50;26.00;;;;;1.05;68.58;100495.34;5082785;27;45501;-69
2022/12/11 09:24:26;;;;;;;;;36.25;27.25;;;;;1.04;68.25;100501.47;5078615;27;45402;-67
2022/12/11 09:26:55;;;;;;;;;28.00;22.50;;;;;0.97;67.53;100491.13;5091381;27;45527;-68
2022/12/11 09:29:20;;;;;;;;;27.50;22.00;;;;;0.97;68.48;100509.44;5095902;27;46061;-65
2022/12/11 09:31:47;;;;;;;;;31.75;27.25;;;;;0.96;68.55;100511.22;5093897;27;45269;-65
2022/12/11 09:34:13;;;;;;;;;28.50;19.00;;;;;1.03;68.13;100504.94;5074093;27;45657;-62
2022/12/11 09:36:40;;;;;;;;;41.25;29.75;;;;;1.07;68.28;100508.41;5094824;27;45680;-68
2022/12/11 09:39:11;;;;;;;;;31.50;29.50;;;;;1.14;68.27;100508.25;5093106;27;47280;-63
2022/12/11 09:41:45;;;;;;;;;41.00;32.50;;;;;1.03;67.89;100476.16;5088307;27;45486;-66
2022/12/11 09:44:48;;;;;;;;;30.50;27.75;;;;;1.25;67.80;100515.03;5086417;27;45418;-67
2022/12/11 09:47:43;;;;;;;;;41.75;32.00;;;;;1.24;67.18;100515.94;5066858;27;45450;-64
2022/12/11 09:50:08;;;;;;;;;34.25;28.50;;;;;1.32;67.71;100512.28;5093505;27;45456;-63
2022/12/11 09:52:51;;;;;;;;;46.00;30.25;;;;;1.28;67.28;100512.34;5095508;27;45399;-68
2022/12/11 09:55:23;;;;;;;;;36.75;32.25;;;;;1.17;67.15;100510.81;5096204;27;45386;-62
2022/12/11 09:58:23;;;;;;;;;31.00;30.00;;;;;1.22;67.69;100517.72;5063373;27;45410;-67
2022/12/11 10:01:03;;;;;;;;;33.75;22.00;;;;;1.15;67.06;100523.06;5089017;27;45544;-65
2022/12/11 10:03:52;;;;;;;;;38.50;30.25;;;;;1.23;66.88;100529.94;5094449;27;45430;-63
2022/12/11 10:06:49;;;;;;;;;34.25;29.00;;;;;1.29;66.62;100529.78;5095616;27;45365;-67
2022/12/11 10:10:06;;;;;;;;;38.25;29.00;;;;;1.30;66.81;100526.28;5096506;27;45406;-72
2022/12/11 10:13:00;;;;;;;;;34.50;26.50;;;;;1.35;67.94;100529.69;5033105;28;46805;-67
2022/12/11 10:15:25;;;;;;;;;35.75;24.50;;;;;1.41;67.21;100525.19;5085891;27;45473;-63
2022/12/11 10:17:54;;;;;;;;;29.00;24.50;;;;;1.38;67.12;100529.63;5093489;27;45345;-65
2022/12/11 10:20:33;;;;;;;;;25.50;25.25;;;;;1.35;67.02;100504.34;5096219;27;45443;-68
2022/12/11 10:23:00;;;;;;;;;26.50;24.50;;;;;1.47;66.83;100513.72;5075959;28;46450;-63
2022/12/11 10:25:39;;;;;;;;;29.75;24.75;;;;;1.40;66.37;100502.50;5067975;27;46512;-63
2022/12/11 10:28:17;;;;;;;;;32.50;25.00;;;;;1.42;66.99;100495.47;5099523;27;46210;-61
2022/12/11 10:30:57;;;;;;;;;35.00;29.50;;;;;1.44;66.35;100504.19;5094716;27;45966;-61
2022/12/11 10:33:37;;;;;;;;;29.75;24.50;;;;;1.32;66.57;100495.69;5089141;27;45425;-62
2022/12/11 10:36:06;;;;;;;;;34.50;27.75;;;;;1.35;66.50;100493.00;5078830;27;45307;-64
2022/12/11 10:38:39;;;;;;;;;32.50;28.75;;;;;1.26;67.19;100473.09;5095453;27;45324;-62
2022/12/11 10:41:17;;;;;;;;;34.50;31.00;;;;;1.45;67.03;100489.31;5100923;27;45387;-62
2022/12/11 10:43:45;;;;;;;;;33.50;26.50;;;;;1.57;66.05;100489.06;5088590;27;45542;-62
2022/12/11 10:46:23;;;;;;;;;51.50;36.25;;;;;1.69;66.22;100480.06;5097306;27;45516;-63
2022/12/11 10:48:53;;;;;;;;;31.75;25.00;;;;;1.96;65.87;100476.84;5079462;27;45430;-62
2022/12/11 10:51:23;;;;;;;;;33.25;29.50;;;;;2.04;65.10;100480.13;5097603;27;45714;-61
2022/12/11 10:53:55;;;;;;;;;25.00;25.00;;;;;2.06;64.13;100461.75;5098620;27;46224;-63
2022/12/11 10:56:30;;;;;;;;;17.00;15.50;;;;;2.14;63.61;100486.03;5098394;27;45515;-64
2022/12/11 10:58:57;;;;;;;;;28.50;24.25;;;;;2.12;64.06;100476.50;5096144;27;45467;-66
2022/12/11 11:01:25;;;;;;;;;34.75;27.25;;;;;2.18;64.20;100476.34;5116607;27;45611;-61
2022/12/11 11:03:53;;;;;;;;;23.75;20.50;;;;;2.17;63.55;100478.09;5113846;27;45330;-61
2022/12/11 11:06:20;;;;;;;;;41.25;30.25;;;;;2.14;63.48;100470.31;5043894;28;45881;-63
2022/12/11 11:08:52;;;;;;;;;37.50;27.00;;;;;2.05;64.20;100467.88;5083455;27;45429;-62
2022/12/11 11:11:22;;;;;;;;;32.75;32.25;;;;;2.01;63.83;100463.63;5096529;27;45568;-62
2022/12/11 11:13:48;;;;;;;;;37.25;25.50;;;;;2.08;63.78;100462.56;5080374;27;45986;-61
2022/12/11 11:16:18;;;;;;;;;33.75;27.75;;;;;2.20;63.69;100461.41;5063903;27;45456;-61
2022/12/11 11:18:53;;;;;;;;;34.00;30.75;;;;;2.29;63.71;100446.31;5099408;27;45616;-62
2022/12/11 11:21:22;;;;;;;;;37.25;28.00;;;;;2.40;63.49;100456.56;5095212;27;45520;-61
2022/12/11 11:23:50;;;;;;;;;31.75;25.00;;;;;2.41;63.14;100447.78;5091742;27;46388;-62
2022/12/11 11:26:16;;;;;;;;;39.00;29.75;;;;;2.34;63.12;100444.47;5084947;27;45565;-61
2022/12/11 11:28:47;;;;;;;;;30.00;25.25;;;;;2.43;63.06;100445.13;5101423;27;45442;-62
2022/12/11 11:31:15;;;;;;;;;33.00;27.75;;;;;2.50;63.37;100444.94;5098839;27;45440;-61
2022/12/11 11:34:09;;;;;;;;;42.75;34.75;;;;;2.73;63.04;100439.06;5099101;27;46736;-62
2022/12/11 11:36:36;;;;;;;;;37.50;34.50;;;;;2.81;61.77;100441.50;5066945;27;45808;-63
2022/12/11 11:39:01;;;;;;;;;36.25;29.00;;;;;2.86;62.59;100443.09;5103149;27;45343;-63
2022/12/11 11:41:35;;;;;;;;;45.25;33.75;;;;;2.89;61.79;100422.03;5098640;27;45473;-66